Wetterdaten: aktuell Dienstag, 21.08.2018 21:15
Datum Zeit Temperatur Luftfeuchte Luftdruck Regen Zeit Sonne Solar Taupunkt Windchill Windben
21.08.2018 21:15 24,4 C 50 % 1015,8 hPa 0,0 l/m 0 min 0 W/m 13,3 C 24,4 C 3,2 km/h (1 Bft)
21.08.2018 20:15 26,4 C 43 % 1015,2 hPa 0,0 l/m 0 min 11 W/m 12,8 C 26,4 C 0,0 km/h (0 Bft)
21.08.2018 19:15 29,4 C 33 % 1014,6 hPa 0,0 l/m 40 min 40 W/m 11,4 C 29,4 C 4,8 km/h (1 Bft)
21.08.2018 18:15 31,1 C 30 % 1014,5 hPa 0,0 l/m 60 min 281 W/m 11,5 C 31,1 C 6,4 km/h (2 Bft)
21.08.2018 17:15 31,6 C 30 % 1015,1 hPa 0,0 l/m 60 min 425 W/m 11,9 C 31,6 C 6,4 km/h (2 Bft)
21.08.2018 16:15 29,7 C 33 % 1015,3 hPa 0,0 l/m 35 min 649 W/m 11,7 C 29,7 C 8,0 km/h (2 Bft)
21.08.2018 15:15 28,7 C 37 % 1015,9 hPa 0,0 l/m 25 min 181 W/m 12,5 C 28,7 C 6,4 km/h (2 Bft)
21.08.2018 14:15 28,8 C 37 % 1016,4 hPa 0,0 l/m 40 min 809 W/m 12,6 C 28,8 C 6,4 km/h (2 Bft)
21.08.2018 13:15 28,8 C 39 % 1016,8 hPa 0,0 l/m 25 min 870 W/m 13,4 C 28,8 C 9,7 km/h (2 Bft)
21.08.2018 12:15 26,0 C 46 % 1017,4 hPa 0,0 l/m 10 min 664 W/m 13,5 C 26,0 C 1,6 km/h (1 Bft)
21.08.2018 11:15 26,6 C 45 % 1017,6 hPa 0,0 l/m 60 min 657 W/m 13,7 C 26,6 C 6,4 km/h (2 Bft)
21.08.2018 10:15 24,2 C 54 % 1017,9 hPa 0,0 l/m 60 min 489 W/m 14,3 C 24,2 C 4,8 km/h (1 Bft)
21.08.2018 09:10 19,5 C 74 % 1018,0 hPa 0,0 l/m 25 min 334 W/m 14,7 C 19,5 C 1,6 km/h (1 Bft)
21.08.2018 08:10 17,3 C 81 % 1018,1 hPa 0,0 l/m 0 min 51 W/m 14,0 C 17,3 C 0,0 km/h (0 Bft)
21.08.2018 07:10 16,3 C 83 % 1018,0 hPa 0,0 l/m 0 min 33 W/m 13,4 C 16,3 C 8,0 km/h (2 Bft)
21.08.2018 06:10 16,2 C 83 % 1017,5 hPa 0,0 l/m 0 min 0 W/m 13,3 C 16,2 C 6,4 km/h (2 Bft)
21.08.2018 05:10 16,4 C 82 % 1017,4 hPa 0,0 l/m 0 min 0 W/m 13,3 C 16,4 C 3,2 km/h (1 Bft)
21.08.2018 04:10 17,4 C 78 % 1017,6 hPa 0,0 l/m 0 min 0 W/m 13,5 C 17,4 C 0,0 km/h (0 Bft)
21.08.2018 03:10 16,8 C 80 % 1017,8 hPa 0,0 l/m 0 min 0 W/m 13,3 C 16,8 C 3,2 km/h (1 Bft)
21.08.2018 02:10 17,1 C 80 % 1017,8 hPa 0,0 l/m 0 min 0 W/m 13,6 C 17,1 C 4,8 km/h (1 Bft)
21.08.2018 01:10 18,1 C 77 % 1017,8 hPa 0,0 l/m 0 min 0 W/m 14,0 C 18,1 C 0,0 km/h (0 Bft)
21.08.2018 00:10 19,1 C 73 % 1017,5 hPa 0,0 l/m 0 min 0 W/m 14,1 C 19,1 C 0,0 km/h (0 Bft)
21.08.2018 00:00 19,3 C 72 % 1017,5 hPa 0,0 l/m 0 min 0 W/m 14,1 C 19,3 C 0,0 km/h (0 Bft)
_ Min-Zeit 05:50 17:30 18:50 - - - 19:40 05:50 21:05
Minimum _ 16,1 C 29 % 1014,4 hPa - - - 10,9 C 16,1 C 0,0 km/h (0 Bft)
_ Max-Zeit 17:15 07:15 09:05 21:15 09:25 13:05 09:45 17:15 16:25
Maximum _ 31,6 C 83 % 1018,2 hPa 0,0 l/m 10 min 902 W/m 15,3 C 31,6 C 16,1 km/h
N (3 Bft)
Durchschnitt _ 23,2 C 57 % 1016,8 hPa #0,0 l/m #7:25 h 334 W/m 13,1 C 23,2 C 4,0 km/h (1 Bft)